createdAt,value
2019-01-29T00:01:14.304Z,2.33
2019-01-29T00:03:43.772Z,2.07
2019-01-29T00:06:13.315Z,1.80
2019-01-29T00:08:42.847Z,1.97
2019-01-29T00:11:12.454Z,1.80
2019-01-29T00:13:42.191Z,1.90
2019-01-29T00:16:11.986Z,2.10
2019-01-29T00:18:41.516Z,2.47
2019-01-29T00:21:12.131Z,2.63
2019-01-29T00:23:41.603Z,2.43
2019-01-29T00:26:11.151Z,2.30
2019-01-29T00:28:40.541Z,2.40
2019-01-29T00:31:10.117Z,2.50
2019-01-29T00:33:39.573Z,2.60
2019-01-29T00:36:09.106Z,2.40
2019-01-29T00:38:38.641Z,2.50
2019-01-29T00:41:08.073Z,2.37
2019-01-29T00:43:37.526Z,2.50
2019-01-29T00:46:07.152Z,2.93
2019-01-29T00:48:36.575Z,2.40
2019-01-29T00:51:06.038Z,2.47
2019-01-29T00:53:35.730Z,3.10
2019-01-29T00:56:05.438Z,2.40
2019-01-29T00:58:34.919Z,2.60
2019-01-29T01:01:05.379Z,2.40
2019-01-29T01:03:34.922Z,2.23
2019-01-29T01:06:04.766Z,2.40
2019-01-29T01:08:34.317Z,2.60
2019-01-29T01:11:03.878Z,2.53
2019-01-29T01:13:33.397Z,2.47
2019-01-29T01:16:02.991Z,2.50
2019-01-29T01:18:32.585Z,2.90
2019-01-29T01:21:02.038Z,2.83
2019-01-29T01:23:31.615Z,3.00
2019-01-29T01:26:01.069Z,2.60
2019-01-29T01:28:30.531Z,2.60
2019-01-29T01:30:59.955Z,3.17
2019-01-29T01:33:29.427Z,2.70
2019-01-29T01:35:58.786Z,2.83
2019-01-29T01:38:28.178Z,3.00
2019-01-29T01:40:57.557Z,3.07
2019-01-29T01:43:27.221Z,2.97
2019-01-29T01:45:56.586Z,2.33
2019-01-29T01:48:26.620Z,2.80
2019-01-29T01:50:56.054Z,2.50
2019-01-29T01:53:25.525Z,2.77
2019-01-29T01:55:55.032Z,2.50
2019-01-29T01:58:24.430Z,2.53
2019-01-29T02:00:53.936Z,2.70
2019-01-29T02:03:23.401Z,2.73
2019-01-29T02:05:52.772Z,2.87
2019-01-29T02:08:22.508Z,2.63
2019-01-29T02:10:51.976Z,2.53
2019-01-29T02:13:21.442Z,2.70
2019-01-29T02:15:50.804Z,2.93
2019-01-29T02:18:20.283Z,2.60
2019-01-29T02:20:49.795Z,2.50
2019-01-29T02:23:19.260Z,2.10
2019-01-29T02:25:49.126Z,2.30
2019-01-29T02:28:18.617Z,2.40
2019-01-29T02:30:48.115Z,2.27
2019-01-29T02:33:17.587Z,2.10
2019-01-29T02:35:46.947Z,2.60
2019-01-29T02:38:16.408Z,2.73
2019-01-29T02:40:45.767Z,3.57
2019-01-29T02:43:15.169Z,2.10
2019-01-29T02:45:44.619Z,2.20
2019-01-29T02:48:14.241Z,2.33
2019-01-29T02:50:43.747Z,2.37
2019-01-29T02:53:18.440Z,3.27
2019-01-29T02:55:44.355Z,2.73
2019-01-29T02:58:13.897Z,2.93
2019-01-29T03:00:43.267Z,2.47
2019-01-29T03:03:12.869Z,2.60
2019-01-29T03:05:42.379Z,2.90
2019-01-29T03:08:11.929Z,2.97
2019-01-29T03:10:41.499Z,2.90
2019-01-29T03:13:11.444Z,2.60
2019-01-29T03:15:41.028Z,2.70
2019-01-29T03:18:10.489Z,2.80
2019-01-29T03:20:39.863Z,2.47
2019-01-29T03:23:09.279Z,2.50
2019-01-29T03:25:38.723Z,2.50
2019-01-29T03:28:08.174Z,2.17
2019-01-29T03:30:37.544Z,2.83
2019-01-29T03:33:07.698Z,2.90
2019-01-29T03:35:37.168Z,2.43
2019-01-29T03:38:06.976Z,2.80
2019-01-29T03:40:36.409Z,2.53
2019-01-29T03:43:05.875Z,2.63
2019-01-29T03:45:35.436Z,2.60
2019-01-29T03:48:05.051Z,2.57
2019-01-29T03:50:34.418Z,2.60
2019-01-29T03:53:03.968Z,2.50
2019-01-29T03:55:33.471Z,2.57
2019-01-29T03:58:02.937Z,2.50
2019-01-29T04:00:32.610Z,2.57
2019-01-29T04:03:02.141Z,2.20
2019-01-29T04:05:31.679Z,1.90
2019-01-29T04:08:01.116Z,1.90
2019-01-29T04:10:30.576Z,2.00
2019-01-29T04:12:59.936Z,2.07
2019-01-29T04:15:29.383Z,2.17
2019-01-29T04:17:59.466Z,2.30
2019-01-29T04:20:29.008Z,2.20
2019-01-29T04:22:58.526Z,2.20
2019-01-29T04:25:28.300Z,2.40
2019-01-29T04:27:57.735Z,2.03
2019-01-29T04:30:27.324Z,2.30
2019-01-29T04:32:56.832Z,2.37
2019-01-29T04:35:26.236Z,2.13
2019-01-29T04:37:55.605Z,2.30
2019-01-29T04:40:25.151Z,2.00
2019-01-29T04:42:55.489Z,2.13
2019-01-29T04:45:25.100Z,2.00
2019-01-29T04:47:54.528Z,2.20
2019-01-29T04:50:24.063Z,2.33
2019-01-29T04:52:53.506Z,3.93
2019-01-29T04:55:23.111Z,2.50
2019-01-29T04:57:52.483Z,2.70
2019-01-29T05:00:26.577Z,2.10
2019-01-29T05:02:56.023Z,2.37
2019-01-29T05:05:25.566Z,2.60
2019-01-29T05:07:54.991Z,2.37
2019-01-29T05:10:24.535Z,2.30
2019-01-29T05:12:53.905Z,2.07
2019-01-29T05:15:23.516Z,2.17
2019-01-29T05:17:52.932Z,2.10
2019-01-29T05:20:23.533Z,2.07
2019-01-29T05:22:53.013Z,1.70
2019-01-29T05:25:22.530Z,1.50
2019-01-29T05:27:52.073Z,2.03
2019-01-29T05:30:23.445Z,2.13
2019-01-29T05:32:53.539Z,1.77
2019-01-29T05:35:23.153Z,1.97
2019-01-29T05:37:52.548Z,1.97
2019-01-29T05:40:23.244Z,2.00
2019-01-29T05:42:52.693Z,1.77
2019-01-29T05:45:23.377Z,1.80
2019-01-29T05:47:53.039Z,1.90
2019-01-29T05:50:22.709Z,2.00
2019-01-29T05:52:52.244Z,2.20
2019-01-29T05:55:23.192Z,2.03
2019-01-29T05:57:52.808Z,2.37
2019-01-29T06:00:32.692Z,2.20
2019-01-29T06:03:05.487Z,2.50
2019-01-29T06:05:35.031Z,2.10
2019-01-29T06:08:05.254Z,2.17
2019-01-29T06:10:34.958Z,2.30
2019-01-29T06:13:04.871Z,2.33
2019-01-29T06:15:35.943Z,2.20
2019-01-29T06:18:07.183Z,2.40
2019-01-29T06:20:36.926Z,2.27
2019-01-29T06:23:06.466Z,2.27
2019-01-29T06:25:35.924Z,2.60
2019-01-29T06:28:05.457Z,2.53
2019-01-29T06:30:35.085Z,2.47
2019-01-29T06:33:04.606Z,2.60
2019-01-29T06:35:35.536Z,2.40
2019-01-29T06:38:05.244Z,2.60
2019-01-29T06:40:35.479Z,3.17
2019-01-29T06:43:05.087Z,2.60
2019-01-29T06:45:34.654Z,2.53
2019-01-29T06:48:04.180Z,3.03
2019-01-29T06:50:33.613Z,2.80
2019-01-29T06:53:03.067Z,2.67
2019-01-29T06:55:32.613Z,2.73
2019-01-29T06:58:02.085Z,2.97
2019-01-29T07:00:33.262Z,3.53
2019-01-29T07:03:02.825Z,3.00
2019-01-29T07:05:32.365Z,3.47
2019-01-29T07:08:01.890Z,3.03
2019-01-29T07:10:31.543Z,2.97
2019-01-29T07:13:02.630Z,3.13
2019-01-29T07:15:48.826Z,3.00
2019-01-29T07:18:19.971Z,2.93
2019-01-29T07:20:49.506Z,3.00
2019-01-29T07:23:18.950Z,3.07
2019-01-29T07:25:49.406Z,2.80
2019-01-29T07:28:18.794Z,2.80
2019-01-29T07:30:48.316Z,3.13
2019-01-29T07:33:17.710Z,3.50
2019-01-29T07:35:47.166Z,2.40
2019-01-29T07:38:16.615Z,2.57
2019-01-29T07:40:46.478Z,2.50
2019-01-29T07:43:15.947Z,2.83
2019-01-29T07:45:45.617Z,2.90
2019-01-29T07:48:15.734Z,2.60
2019-01-29T07:50:45.348Z,2.83
2019-01-29T07:53:14.987Z,2.83
2019-01-29T07:55:44.496Z,3.37
2019-01-29T07:58:14.135Z,2.83
2019-01-29T08:00:43.538Z,3.23
2019-01-29T08:03:12.936Z,4.00
2019-01-29T08:05:42.416Z,3.07
2019-01-29T08:08:11.953Z,3.40
2019-01-29T08:10:42.007Z,3.20
2019-01-29T08:13:11.544Z,3.47
2019-01-29T08:15:41.797Z,3.30
2019-01-29T08:18:11.414Z,3.27
2019-01-29T08:20:42.039Z,3.43
2019-01-29T08:23:11.441Z,4.03
2019-01-29T08:25:47.566Z,3.90
2019-01-29T08:28:12.321Z,4.27
2019-01-29T08:30:41.941Z,3.80
2019-01-29T08:33:11.748Z,3.70
2019-01-29T08:35:41.690Z,3.80
2019-01-29T08:38:11.335Z,3.97
2019-01-29T08:40:40.720Z,3.87
2019-01-29T08:43:10.190Z,4.87
2019-01-29T08:45:40.092Z,3.70
2019-01-29T08:48:09.586Z,4.37
2019-01-29T08:50:39.115Z,4.50
2019-01-29T08:53:08.598Z,4.23
2019-01-29T08:55:38.135Z,4.07
2019-01-29T08:58:07.720Z,3.93
2019-01-29T09:00:37.383Z,4.40
2019-01-29T09:03:06.977Z,4.17
2019-01-29T09:05:36.512Z,4.23
2019-01-29T09:08:06.062Z,4.40
2019-01-29T09:10:35.599Z,4.30
2019-01-29T09:13:05.104Z,4.90
2019-01-29T09:15:34.631Z,4.37
2019-01-29T09:18:05.872Z,4.90
2019-01-29T09:20:35.432Z,4.80
2019-01-29T09:23:06.335Z,4.77
2019-01-29T09:25:35.921Z,4.90
2019-01-29T09:28:05.418Z,4.77
2019-01-29T09:30:34.965Z,5.10
2019-01-29T09:33:04.627Z,4.93
2019-01-29T09:35:34.060Z,5.03
2019-01-29T09:38:03.548Z,4.70
2019-01-29T09:40:33.098Z,4.67
2019-01-29T09:43:02.747Z,4.97
2019-01-29T09:45:32.150Z,5.40
2019-01-29T09:48:01.664Z,5.10
2019-01-29T09:50:31.131Z,4.53
2019-01-29T09:53:00.516Z,4.47
2019-01-29T09:55:30.162Z,4.80
2019-01-29T09:57:59.739Z,4.83
2019-01-29T10:00:34.639Z,5.10
2019-01-29T10:03:04.563Z,4.27
2019-01-29T10:05:34.106Z,4.70
2019-01-29T10:08:04.250Z,4.40
2019-01-29T10:10:33.913Z,4.70
2019-01-29T10:13:03.493Z,4.73
2019-01-29T10:15:35.224Z,4.87
2019-01-29T10:18:05.822Z,5.00
2019-01-29T10:20:35.335Z,5.13
2019-01-29T10:23:06.713Z,5.37
2019-01-29T10:25:38.238Z,5.37
2019-01-29T10:28:09.793Z,5.50
2019-01-29T10:30:39.230Z,5.30
2019-01-29T10:33:08.763Z,5.20
2019-01-29T10:35:38.266Z,5.30
2019-01-29T10:38:07.655Z,5.50
2019-01-29T10:40:37.255Z,5.77
2019-01-29T10:43:06.898Z,6.17
2019-01-29T10:45:36.396Z,5.97
2019-01-29T10:48:06.078Z,5.63
2019-01-29T10:50:35.675Z,5.93
2019-01-29T10:53:05.728Z,6.03
2019-01-29T10:55:35.387Z,5.83
2019-01-29T10:58:06.504Z,6.07
2019-01-29T11:00:39.049Z,5.93
2019-01-29T11:03:09.250Z,6.27
2019-01-29T11:05:38.749Z,6.70
2019-01-29T11:08:08.343Z,6.67
2019-01-29T11:10:37.910Z,7.10
2019-01-29T11:13:09.041Z,6.80
2019-01-29T11:15:40.842Z,6.33
2019-01-29T11:18:12.445Z,7.43
2019-01-29T11:20:41.954Z,7.23
2019-01-29T11:23:12.914Z,7.70
2019-01-29T11:25:42.489Z,7.57
2019-01-29T11:28:12.031Z,7.40
2019-01-29T11:30:41.855Z,8.33
2019-01-29T11:33:12.294Z,7.50
2019-01-29T11:35:41.880Z,7.10
2019-01-29T11:38:11.643Z,7.03
2019-01-29T11:40:41.284Z,7.27
2019-01-29T11:43:10.734Z,7.80
2019-01-29T11:45:46.062Z,8.20
2019-01-29T11:48:15.429Z,7.90
2019-01-29T11:50:44.980Z,7.70
2019-01-29T11:53:14.474Z,7.57
2019-01-29T11:55:44.059Z,7.83
2019-01-29T11:58:13.526Z,7.83
2019-01-29T12:00:44.629Z,7.20
2019-01-29T12:03:14.135Z,7.40
2019-01-29T12:05:43.698Z,7.17
2019-01-29T12:08:13.201Z,7.27
2019-01-29T12:10:42.819Z,7.30
2019-01-29T12:13:12.183Z,7.70
2019-01-29T12:15:43.353Z,7.90
2019-01-29T12:18:12.779Z,8.10
2019-01-29T12:20:42.271Z,8.67
2019-01-29T12:23:11.848Z,8.50
2019-01-29T12:25:41.378Z,9.17
2019-01-29T12:28:10.803Z,7.83
2019-01-29T12:30:40.334Z,8.87
2019-01-29T12:33:11.568Z,8.00
2019-01-29T12:35:41.055Z,8.13
2019-01-29T12:38:10.554Z,7.57
2019-01-29T12:40:43.235Z,7.63
2019-01-29T12:43:12.664Z,7.60
2019-01-29T12:45:42.203Z,7.40
2019-01-29T12:48:11.701Z,7.43
2019-01-29T12:50:42.983Z,7.03
2019-01-29T12:53:14.366Z,7.53
2019-01-29T12:55:43.745Z,7.57
2019-01-29T12:58:13.264Z,8.30
2019-01-29T13:00:44.961Z,7.83
2019-01-29T13:03:14.436Z,8.00
2019-01-29T13:05:43.840Z,7.90
2019-01-29T13:08:13.571Z,7.87
2019-01-29T13:10:43.203Z,7.67
2019-01-29T13:13:12.734Z,7.97
2019-01-29T13:15:42.578Z,8.30
2019-01-29T13:18:12.268Z,8.47
2019-01-29T13:20:41.735Z,8.10
2019-01-29T13:23:11.168Z,8.53
2019-01-29T13:25:40.706Z,8.53
2019-01-29T13:28:10.248Z,8.87
2019-01-29T13:30:39.776Z,8.70
2019-01-29T13:33:11.447Z,8.73
2019-01-29T13:35:42.608Z,8.47
2019-01-29T13:38:12.369Z,9.30
2019-01-29T13:40:41.972Z,9.50
2019-01-29T13:43:11.500Z,9.27
2019-01-29T13:45:41.134Z,9.50
2019-01-29T13:48:10.860Z,9.30
2019-01-29T13:50:43.703Z,8.97
2019-01-29T13:53:13.111Z,9.83
2019-01-29T13:55:42.765Z,9.10
2019-01-29T13:58:12.435Z,9.20
2019-01-29T14:00:42.034Z,10.20
2019-01-29T14:03:12.913Z,9.80
2019-01-29T14:05:42.379Z,9.83
2019-01-29T14:08:12.007Z,10.10
2019-01-29T14:10:41.552Z,9.27
2019-01-29T14:13:11.194Z,9.13
2019-01-29T14:15:44.986Z,10.30
2019-01-29T14:18:14.925Z,9.07
2019-01-29T14:20:44.280Z,8.90
2019-01-29T14:23:13.667Z,9.20
2019-01-29T14:25:43.206Z,10.00
2019-01-29T14:28:12.747Z,10.47
2019-01-29T14:30:42.323Z,9.83
2019-01-29T14:33:11.952Z,10.33
2019-01-29T14:35:41.516Z,10.27
2019-01-29T14:38:16.839Z,9.60
2019-01-29T14:40:46.406Z,9.30
2019-01-29T14:43:28.515Z,8.77
2019-01-29T14:45:58.615Z,8.70
2019-01-29T14:48:28.192Z,8.70
2019-01-29T14:50:58.010Z,9.57
2019-01-29T14:53:27.714Z,9.10
2019-01-29T14:55:57.391Z,10.03
2019-01-29T14:58:26.855Z,10.23
2019-01-29T15:00:56.468Z,10.37
2019-01-29T15:03:26.070Z,10.53
2019-01-29T15:05:55.592Z,9.63
2019-01-29T15:08:25.085Z,9.73
2019-01-29T15:10:54.636Z,9.33
2019-01-29T15:13:24.240Z,9.77
2019-01-29T15:15:55.433Z,10.23
2019-01-29T15:18:26.542Z,10.17
2019-01-29T15:20:56.020Z,10.20
2019-01-29T15:23:25.637Z,8.70
2019-01-29T15:25:55.177Z,8.80
2019-01-29T15:28:26.137Z,7.30
2019-01-29T15:30:55.630Z,7.57
2019-01-29T15:33:25.090Z,6.83
2019-01-29T15:35:54.645Z,6.87
2019-01-29T15:38:24.217Z,6.40
2019-01-29T15:40:53.748Z,5.60
2019-01-29T15:43:23.212Z,6.07
2019-01-29T15:45:52.816Z,6.20
2019-01-29T15:48:22.290Z,5.53
2019-01-29T15:50:51.996Z,5.70
2019-01-29T15:53:22.928Z,5.93
2019-01-29T15:55:52.649Z,7.00
2019-01-29T15:58:22.700Z,7.83
2019-01-29T16:00:52.156Z,6.30
2019-01-29T16:03:21.810Z,5.73
2019-01-29T16:05:52.890Z,6.43
2019-01-29T16:08:22.359Z,6.40
2019-01-29T16:10:51.864Z,6.90
2019-01-29T16:13:21.320Z,7.90
2019-01-29T16:15:50.778Z,8.23
2019-01-29T16:18:20.316Z,7.87
2019-01-29T16:20:49.811Z,7.77
2019-01-29T16:23:19.311Z,7.27
2019-01-29T16:25:48.743Z,7.17
2019-01-29T16:28:18.350Z,7.20
2019-01-29T16:30:47.789Z,7.43
2019-01-29T16:33:17.260Z,7.27
2019-01-29T16:35:46.902Z,7.60
2019-01-29T16:38:16.579Z,7.10
2019-01-29T16:40:46.507Z,7.03
2019-01-29T16:43:15.989Z,7.30
2019-01-29T16:45:45.445Z,7.53
2019-01-29T16:48:15.761Z,7.73
2019-01-29T16:50:45.307Z,7.87
2019-01-29T16:53:15.009Z,7.93
2019-01-29T16:55:44.437Z,7.50
2019-01-29T16:58:13.907Z,7.47
2019-01-29T17:00:43.743Z,7.83
2019-01-29T17:03:13.480Z,8.03
2019-01-29T17:05:43.958Z,8.00
2019-01-29T17:08:13.419Z,7.73
2019-01-29T17:10:43.405Z,8.40
2019-01-29T17:13:13.020Z,7.90
2019-01-29T17:15:42.465Z,8.07
2019-01-29T17:18:13.523Z,8.57
2019-01-29T17:20:44.326Z,8.27
2019-01-29T17:23:13.854Z,8.93
2019-01-29T17:25:43.370Z,9.23
2019-01-29T17:28:12.782Z,9.67
2019-01-29T17:30:46.468Z,10.00
2019-01-29T17:33:18.180Z,9.17
2019-01-29T17:35:47.685Z,9.10
2019-01-29T17:38:17.819Z,9.90
2019-01-29T17:40:47.506Z,10.20
2019-01-29T17:43:17.107Z,10.00
2019-01-29T17:45:51.555Z,11.10
2019-01-29T17:48:21.109Z,11.20
2019-01-29T17:50:50.681Z,10.60
2019-01-29T17:53:20.070Z,9.23
2019-01-29T17:55:49.613Z,9.87
2019-01-29T17:58:20.843Z,9.63
2019-01-29T18:00:54.735Z,9.50
2019-01-29T18:03:24.228Z,9.83
2019-01-29T18:05:53.682Z,9.40
2019-01-29T18:08:23.704Z,9.57
2019-01-29T18:10:53.290Z,9.90
2019-01-29T18:13:22.776Z,10.60
2019-01-29T18:15:52.154Z,10.50
2019-01-29T18:18:21.670Z,10.80
2019-01-29T18:20:51.179Z,11.10
2019-01-29T18:23:20.726Z,10.40
2019-01-29T18:25:50.329Z,10.73
2019-01-29T18:28:19.880Z,11.40
2019-01-29T18:30:49.311Z,11.30
2019-01-29T18:33:20.069Z,11.83
2019-01-29T18:35:49.699Z,11.50
2019-01-29T18:38:19.178Z,11.80
2019-01-29T18:40:51.045Z,11.93
2019-01-29T18:43:20.521Z,11.80
2019-01-29T18:45:49.990Z,12.23
2019-01-29T18:48:19.470Z,12.43
2019-01-29T18:50:48.913Z,12.63
2019-01-29T18:53:18.400Z,12.90
2019-01-29T18:55:47.971Z,12.73
2019-01-29T18:58:17.512Z,13.40
2019-01-29T19:00:54.345Z,12.87
2019-01-29T19:03:18.142Z,14.00
2019-01-29T19:05:47.840Z,13.87
2019-01-29T19:08:17.397Z,12.37
2019-01-29T19:10:46.845Z,13.30
2019-01-29T19:13:16.373Z,13.03
2019-01-29T19:15:45.984Z,13.20
2019-01-29T19:18:15.849Z,13.73
2019-01-29T19:20:45.371Z,14.03
2019-01-29T19:23:14.788Z,13.73
2019-01-29T19:25:44.581Z,14.00
2019-01-29T19:28:21.800Z,13.47
2019-01-29T19:30:45.425Z,13.67
2019-01-29T19:33:14.823Z,13.90
2019-01-29T19:35:44.368Z,13.80
2019-01-29T19:38:16.431Z,13.53
2019-01-29T19:40:45.183Z,14.20
2019-01-29T19:43:14.746Z,14.73
2019-01-29T19:45:44.328Z,14.67
2019-01-29T19:48:13.804Z,13.93
2019-01-29T19:50:43.393Z,13.80
2019-01-29T19:53:13.223Z,14.40
2019-01-29T19:55:42.693Z,14.80
2019-01-29T19:58:12.233Z,14.77
2019-01-29T20:00:42.161Z,14.20
2019-01-29T20:03:12.008Z,14.50
2019-01-29T20:05:41.593Z,14.83
2019-01-29T20:08:11.138Z,14.40
2019-01-29T20:10:40.578Z,15.27
2019-01-29T20:13:10.132Z,15.20
2019-01-29T20:15:39.724Z,15.57
2019-01-29T20:18:09.266Z,15.70
2019-01-29T20:20:40.578Z,15.70
2019-01-29T20:23:10.051Z,16.80
2019-01-29T20:25:39.666Z,16.43
2019-01-29T20:28:10.795Z,15.77
2019-01-29T20:30:40.862Z,16.50
2019-01-29T20:33:23.366Z,16.40
2019-01-29T20:35:52.777Z,15.90
2019-01-29T20:38:22.189Z,17.33
2019-01-29T20:40:51.678Z,15.93
2019-01-29T20:43:21.219Z,17.10
2019-01-29T20:45:50.790Z,17.47
2019-01-29T20:48:20.325Z,16.13
2019-01-29T20:50:49.803Z,16.57
2019-01-29T20:53:19.459Z,17.33
2019-01-29T20:55:49.003Z,17.17
2019-01-29T20:58:18.447Z,17.13
2019-01-29T21:00:47.852Z,17.43
2019-01-29T21:03:17.352Z,17.33
2019-01-29T21:05:46.899Z,17.07
2019-01-29T21:08:16.324Z,18.17
2019-01-29T21:10:45.825Z,17.63
2019-01-29T21:13:15.278Z,17.20
2019-01-29T21:15:44.853Z,17.23
2019-01-29T21:18:14.234Z,17.23
2019-01-29T21:20:43.778Z,18.00
2019-01-29T21:23:13.217Z,18.33
2019-01-29T21:25:42.686Z,18.67
2019-01-29T21:28:12.278Z,17.37
2019-01-29T21:30:45.298Z,17.30
2019-01-29T21:33:14.872Z,16.50
2019-01-29T21:35:44.429Z,17.73
2019-01-29T21:38:13.903Z,16.27
2019-01-29T21:40:44.427Z,16.97
2019-01-29T21:43:13.986Z,18.17
2019-01-29T21:45:43.419Z,17.00
2019-01-29T21:48:13.207Z,16.87
2019-01-29T21:50:42.731Z,17.63
2019-01-29T21:53:12.520Z,18.13
2019-01-29T21:55:41.963Z,18.50
2019-01-29T21:58:11.539Z,18.67
2019-01-29T22:00:42.652Z,18.27
2019-01-29T22:03:12.164Z,17.83
2019-01-29T22:05:41.801Z,18.57
2019-01-29T22:08:11.354Z,18.67
2019-01-29T22:10:41.000Z,18.50
2019-01-29T22:13:10.606Z,18.70
2019-01-29T22:15:40.432Z,19.30
2019-01-29T22:18:10.073Z,18.53
2019-01-29T22:20:39.616Z,18.77
2019-01-29T22:23:09.025Z,20.30
2019-01-29T22:25:38.436Z,19.80
2019-01-29T22:28:08.239Z,19.13
2019-01-29T22:30:39.958Z,19.67
2019-01-29T22:33:09.396Z,19.83
2019-01-29T22:35:38.963Z,19.90
2019-01-29T22:38:08.589Z,20.00
2019-01-29T22:40:37.990Z,20.07
2019-01-29T22:43:07.473Z,19.57
2019-01-29T22:45:37.041Z,19.63
2019-01-29T22:48:06.656Z,19.77
2019-01-29T22:50:39.686Z,21.30
2019-01-29T22:53:09.198Z,20.70
2019-01-29T22:55:38.704Z,20.43
2019-01-29T22:58:08.989Z,20.20
2019-01-29T23:00:55.088Z,20.67
2019-01-29T23:03:30.366Z,19.70
2019-01-29T23:06:05.472Z,21.03
2019-01-29T23:08:34.915Z,21.27
2019-01-29T23:11:04.844Z,20.20
2019-01-29T23:13:35.990Z,21.10
2019-01-29T23:16:07.069Z,20.67
2019-01-29T23:18:38.324Z,20.27
2019-01-29T23:21:07.739Z,20.90
2019-01-29T23:23:37.110Z,19.67
2019-01-29T23:26:06.834Z,20.47
2019-01-29T23:28:36.275Z,20.10
2019-01-29T23:31:06.133Z,21.03
2019-01-29T23:33:35.502Z,21.20
2019-01-29T23:36:05.238Z,20.30
2019-01-29T23:38:35.092Z,21.60
2019-01-29T23:41:04.635Z,20.13
2019-01-29T23:43:34.182Z,21.37
2019-01-29T23:46:03.860Z,20.17
2019-01-29T23:48:33.544Z,19.53
2019-01-29T23:51:02.977Z,20.20
2019-01-29T23:53:32.475Z,19.00
2019-01-29T23:56:02.888Z,20.63
2019-01-29T23:58:32.365Z,20.03
